Time;durP1;ratioP1;P1;durP2;ratioP2;P2;SDS_P1;SDS_P2;PMS_P1;PMS_P2;Temp;Humidity;BMP_temperature;BMP_pressure;BME280_temperature;BME280_humidity;BME280_pressure;Samples;Min_cycle;Max_cycle;Signal;HPM_P1;HPM_P2
2022/07/25 00:01:45;;;;;;;4.97;4.70;;;24.80;49.20;;;;;;5064128;28;20190;-60
2022/07/25 00:04:13;;;;;;;5.37;5.07;;;24.80;49.20;;;;;;5058819;28;20675;-64
2022/07/25 00:06:39;;;;;;;5.00;4.80;;;24.80;49.20;;;;;;5059185;28;20917;-60
2022/07/25 00:09:06;;;;;;;4.93;4.70;;;24.80;49.30;;;;;;5059223;28;20429;-72
2022/07/25 00:11:32;;;;;;;4.33;4.03;;;24.80;49.20;;;;;;5060862;28;20444;-64
2022/07/25 00:13:57;;;;;;;4.80;4.60;;;24.80;49.20;;;;;;5062549;28;20765;-62
2022/07/25 00:16:23;;;;;;;4.83;4.63;;;24.80;49.20;;;;;;5066380;28;20188;-68
2022/07/25 00:18:50;;;;;;;4.40;4.20;;;24.80;49.20;;;;;;5060104;28;20223;-69
2022/07/25 00:21:16;;;;;;;5.13;4.50;;;24.80;49.20;;;;;;5063114;28;20985;-71
2022/07/25 00:23:41;;;;;;;4.70;4.50;;;24.80;49.30;;;;;;5058599;28;20509;-70
2022/07/25 00:26:08;;;;;;;4.67;4.37;;;24.80;49.20;;;;;;5063918;28;20200;-59
2022/07/25 00:28:34;;;;;;;4.97;4.73;;;24.80;49.10;;;;;;5060139;28;20182;-58
2022/07/25 00:31:01;;;;;;;4.40;4.20;;;24.80;49.30;;;;;;5067643;28;20500;-63
2022/07/25 00:33:26;;;;;;;4.60;4.40;;;24.80;49.20;;;;;;5061631;28;20928;-69
2022/07/25 00:35:52;;;;;;;4.67;4.47;;;24.80;49.20;;;;;;5060806;28;20471;-63
2022/07/25 00:38:18;;;;;;;4.53;4.33;;;24.80;49.30;;;;;;5062397;28;20253;-58
2022/07/25 00:40:43;;;;;;;4.97;4.67;;;24.80;49.30;;;;;;5062471;28;20193;-62
2022/07/25 00:43:09;;;;;;;4.93;4.63;;;24.80;49.30;;;;;;5061129;28;20770;-62
2022/07/25 00:45:37;;;;;;;4.63;4.43;;;24.80;49.20;;;;;;5066867;28;20191;-62
2022/07/25 00:48:03;;;;;;;4.67;4.37;;;24.80;49.30;;;;;;5068471;28;20205;-66
2022/07/25 00:50:30;;;;;;;4.53;4.33;;;24.80;49.30;;;;;;5066277;28;20533;-69
2022/07/25 00:52:57;;;;;;;4.33;4.13;;;24.80;49.30;;;;;;5070426;28;22404;-60
2022/07/25 00:55:24;;;;;;;4.60;4.40;;;24.80;49.40;;;;;;5068888;28;20509;-57
2022/07/25 00:57:50;;;;;;;4.20;4.00;;;24.80;49.20;;;;;;5066544;28;20438;-71
2022/07/25 01:00:17;;;;;;;4.93;4.63;;;24.80;49.30;;;;;;5071875;28;20421;-60
2022/07/25 01:02:43;;;;;;;4.47;4.27;;;24.80;49.30;;;;;;5075862;28;20291;-58
2022/07/25 01:05:10;;;;;;;5.00;4.60;;;24.80;49.30;;;;;;5064814;28;20425;-61
2022/07/25 01:07:38;;;;;;;4.80;4.57;;;24.80;49.20;;;;;;5065519;28;20478;-69
2022/07/25 01:10:06;;;;;;;4.23;4.03;;;24.80;49.20;;;;;;5063466;28;20444;-67
2022/07/25 01:12:48;;;;;;;4.53;4.33;;;24.80;49.20;;;;;;5067282;28;20457;-64
2022/07/25 01:15:16;;;;;;;4.30;4.10;;;24.80;49.20;;;;;;5063351;28;20897;-62
2022/07/25 01:17:42;;;;;;;4.53;4.30;;;24.80;49.30;;;;;;5071047;28;20433;-62
2022/07/25 01:20:17;;;;;;;3.80;3.60;;;24.80;49.20;;;;;;5065091;28;20859;-72
2022/07/25 01:22:43;;;;;;;5.23;4.83;;;24.80;49.90;;;;;;5061884;28;20181;-64
2022/07/25 01:25:11;;;;;;;4.40;4.20;;;24.80;49.20;;;;;;5062475;28;20436;-61
2022/07/25 01:27:39;;;;;;;4.90;4.60;;;24.80;49.20;;;;;;5062054;28;20465;-58
2022/07/25 01:30:07;;;;;;;5.43;4.57;;;24.80;49.20;;;;;;5066793;28;20440;-61
2022/07/25 01:32:34;;;;;;;4.33;4.13;;;24.80;49.30;;;;;;5067826;28;20440;-61
2022/07/25 01:34:59;;;;;;;4.50;4.30;;;24.80;49.30;;;;;;5069000;28;20426;-63
2022/07/25 01:37:25;;;;;;;4.70;4.50;;;24.80;49.30;;;;;;5062270;28;20816;-72
2022/07/25 01:39:51;;;;;;;4.10;3.90;;;24.80;49.30;;;;;;5059923;28;20189;-68
2022/07/25 01:42:16;;;;;;;4.30;4.10;;;24.80;49.30;;;;;;5065607;28;20178;-57
2022/07/25 01:44:42;;;;;;;4.00;3.80;;;24.80;49.30;;;;;;5068065;28;20632;-59
2022/07/25 01:47:08;;;;;;;4.50;4.30;;;24.80;49.30;;;;;;5066575;28;20278;-63
2022/07/25 01:49:34;;;;;;;4.80;4.60;;;24.80;49.40;;;;;;5064442;28;20336;-69
2022/07/25 01:52:02;;;;;;;4.20;4.00;;;24.80;49.30;;;;;;5064775;28;20199;-63
2022/07/25 01:54:28;;;;;;;4.40;4.20;;;24.80;49.40;;;;;;5064404;28;20181;-62
2022/07/25 01:56:54;;;;;;;4.17;3.97;;;24.80;49.40;;;;;;5065826;28;23067;-59
2022/07/25 01:59:21;;;;;;;4.07;3.87;;;24.80;49.30;;;;;;5068458;28;20875;-59
2022/07/25 02:01:47;;;;;;;4.10;3.90;;;24.80;49.30;;;;;;5065596;28;20189;-59
2022/07/25 02:04:13;;;;;;;4.80;4.50;;;24.80;49.30;;;;;;5068240;28;20433;-68
2022/07/25 02:06:40;;;;;;;4.50;4.20;;;24.80;49.40;;;;;;5066814;28;20668;-61
2022/07/25 02:09:07;;;;;;;4.10;3.90;;;24.80;49.30;;;;;;5068232;28;20452;-57
2022/07/25 02:11:35;;;;;;;4.63;4.43;;;24.80;49.30;;;;;;5066617;28;22134;-59
2022/07/25 02:14:01;;;;;;;4.37;4.17;;;24.80;49.40;;;;;;5065974;28;22304;-59
2022/07/25 02:16:27;;;;;;;4.20;4.00;;;24.80;49.50;;;;;;5063681;28;20563;-60
2022/07/25 02:18:54;;;;;;;4.80;4.60;;;24.80;49.40;;;;;;5067613;28;20820;-68
2022/07/25 02:21:20;;;;;;;5.00;4.70;;;24.80;49.40;;;;;;5067784;28;20428;-63
2022/07/25 02:23:47;;;;;;;4.93;4.70;;;24.80;49.40;;;;;;5063359;28;20433;-62
2022/07/25 02:26:13;;;;;;;4.43;4.23;;;24.80;49.40;;;;;;5059917;28;20436;-61
2022/07/25 02:28:40;;;;;;;4.60;4.40;;;24.80;49.40;;;;;;5059636;28;20448;-62
2022/07/25 02:31:06;;;;;;;5.07;4.77;;;24.70;49.30;;;;;;5061568;28;20614;-66
2022/07/25 02:33:32;;;;;;;4.33;3.93;;;24.80;49.50;;;;;;5066871;28;20595;-61
2022/07/25 02:36:00;;;;;;;4.30;4.10;;;24.80;49.30;;;;;;5067668;28;20443;-64
2022/07/25 02:38:25;;;;;;;4.60;4.40;;;24.80;49.40;;;;;;5059851;28;20425;-63
2022/07/25 02:40:52;;;;;;;4.50;4.30;;;24.80;49.40;;;;;;5060066;28;20431;-72
2022/07/25 02:43:19;;;;;;;4.40;4.20;;;24.80;49.40;;;;;;5060989;28;20184;-69
2022/07/25 02:45:45;;;;;;;4.27;4.07;;;24.80;49.30;;;;;;5064461;28;20524;-58
2022/07/25 02:48:11;;;;;;;4.70;4.50;;;24.80;49.40;;;;;;5071938;28;20959;-58
2022/07/25 02:50:37;;;;;;;4.03;3.83;;;24.80;49.40;;;;;;5063756;28;20441;-60
2022/07/25 02:53:03;;;;;;;4.10;3.90;;;24.80;49.30;;;;;;5062376;28;20559;-60
2022/07/25 02:55:31;;;;;;;4.10;3.90;;;24.80;49.30;;;;;;5059011;28;20425;-58
2022/07/25 02:57:58;;;;;;;4.20;4.00;;;24.80;49.40;;;;;;5064260;28;20188;-69
2022/07/25 03:00:24;;;;;;;4.50;4.20;;;24.80;49.40;;;;;;5064248;28;20468;-58
2022/07/25 03:02:50;;;;;;;5.17;4.87;;;24.80;49.40;;;;;;5062672;28;20434;-58
2022/07/25 03:05:16;;;;;;;4.67;4.37;;;24.80;49.40;;;;;;5072074;28;20432;-61
2022/07/25 03:07:43;;;;;;;3.70;3.50;;;24.80;49.40;;;;;;5061435;28;20244;-58
2022/07/25 03:10:11;;;;;;;4.90;4.60;;;24.80;49.40;;;;;;5059323;28;20430;-71
2022/07/25 03:12:40;;;;;;;4.17;3.97;;;24.80;49.40;;;;;;5060524;28;20792;-58
2022/07/25 03:15:06;;;;;;;4.10;3.90;;;24.80;49.40;;;;;;5060099;28;20446;-72
2022/07/25 03:17:32;;;;;;;4.37;4.17;;;24.80;49.40;;;;;;5062635;28;20438;-58
2022/07/25 03:19:58;;;;;;;4.27;4.07;;;24.80;49.40;;;;;;5071664;28;20474;-61
2022/07/25 03:22:25;;;;;;;4.20;4.00;;;24.80;49.50;;;;;;5065311;28;20185;-64
2022/07/25 03:24:52;;;;;;;4.20;4.00;;;24.80;49.40;;;;;;5063605;28;20442;-60
2022/07/25 03:27:18;;;;;;;4.70;4.40;;;24.80;49.40;;;;;;5062254;28;21106;-63
2022/07/25 03:29:44;;;;;;;4.07;3.77;;;24.80;49.40;;;;;;5061851;28;20542;-65
2022/07/25 03:32:09;;;;;;;4.50;4.30;;;24.80;49.40;;;;;;5059506;28;20429;-64
2022/07/25 03:34:35;;;;;;;4.23;4.03;;;24.80;49.40;;;;;;5069907;28;20238;-70
2022/07/25 03:37:02;;;;;;;4.00;3.80;;;24.80;49.40;;;;;;5060431;28;20181;-60
2022/07/25 03:39:28;;;;;;;4.20;4.00;;;24.80;49.40;;;;;;5059147;28;20192;-66
2022/07/25 03:41:54;;;;;;;4.53;4.20;;;24.80;49.40;;;;;;5065199;28;20958;-62
2022/07/25 03:44:21;;;;;;;4.23;4.03;;;24.80;49.40;;;;;;5062112;28;20471;-64
2022/07/25 03:46:47;;;;;;;4.67;4.40;;;24.80;49.40;;;;;;5062290;28;20465;-58
2022/07/25 03:49:12;;;;;;;4.40;4.20;;;24.80;49.40;;;;;;5062027;28;21063;-66
2022/07/25 03:51:38;;;;;;;4.00;3.80;;;24.80;49.40;;;;;;5068404;28;20172;-59
2022/07/25 03:54:05;;;;;;;4.77;4.50;;;24.80;49.40;;;;;;5061104;28;20188;-60
2022/07/25 03:56:36;;;;;;;4.50;4.20;;;24.80;49.40;;;;;;5060038;28;20197;-60
2022/07/25 03:59:04;;;;;;;4.03;3.83;;;24.80;49.40;;;;;;5060064;28;20501;-68
2022/07/25 04:01:30;;;;;;;4.10;3.90;;;24.80;49.40;;;;;;5062300;28;20441;-58
2022/07/25 04:03:56;;;;;;;4.30;4.10;;;24.80;49.40;;;;;;5061513;28;20436;-58
2022/07/25 04:06:23;;;;;;;4.33;4.13;;;24.80;49.40;;;;;;5067891;28;20205;-67
2022/07/25 04:08:49;;;;;;;3.87;3.67;;;24.80;49.40;;;;;;5066189;28;20178;-59
2022/07/25 04:11:15;;;;;;;4.10;3.90;;;24.80;49.50;;;;;;5065878;28;20436;-64
2022/07/25 04:13:41;;;;;;;4.23;4.03;;;24.80;49.40;;;;;;5059585;28;20421;-60
2022/07/25 04:16:07;;;;;;;4.40;4.20;;;24.80;49.40;;;;;;5059014;28;20201;-58
2022/07/25 04:18:33;;;;;;;4.10;3.90;;;24.80;49.40;;;;;;5059161;28;20188;-62
2022/07/25 04:20:59;;;;;;;3.80;3.60;;;24.80;49.40;;;;;;5069131;28;20433;-63
2022/07/25 04:23:26;;;;;;;3.87;3.67;;;24.80;49.40;;;;;;5065660;28;21827;-63
2022/07/25 04:25:51;;;;;;;4.40;4.20;;;24.80;49.40;;;;;;5067887;28;22435;-61
2022/07/25 04:28:17;;;;;;;4.30;4.10;;;24.80;49.40;;;;;;5063642;28;20502;-69
2022/07/25 04:30:44;;;;;;;3.83;3.63;;;24.80;49.50;;;;;;5063973;28;20291;-69
2022/07/25 04:33:10;;;;;;;3.90;3.70;;;24.80;49.50;;;;;;5064291;28;20185;-63
2022/07/25 04:35:36;;;;;;;4.77;4.37;;;24.80;49.50;;;;;;5064457;28;20500;-65
2022/07/25 04:38:02;;;;;;;4.30;4.10;;;24.80;49.50;;;;;;5070013;28;20449;-61
2022/07/25 04:40:28;;;;;;;4.50;4.10;;;24.80;49.40;;;;;;5062737;28;20666;-63
2022/07/25 04:42:53;;;;;;;3.77;3.57;;;24.80;49.50;;;;;;5062523;28;20436;-58
2022/07/25 04:45:19;;;;;;;3.97;3.77;;;24.80;49.50;;;;;;5070865;28;20184;-60
2022/07/25 04:47:45;;;;;;;3.80;3.60;;;24.80;49.40;;;;;;5065516;28;20272;-70
2022/07/25 04:50:11;;;;;;;4.60;4.40;;;24.80;49.50;;;;;;5062407;28;20197;-59
2022/07/25 04:52:37;;;;;;;3.83;3.63;;;24.80;49.50;;;;;;5070262;28;20452;-57
2022/07/25 04:55:03;;;;;;;3.93;3.73;;;24.80;49.40;;;;;;5066682;28;20421;-61
2022/07/25 04:57:29;;;;;;;4.20;4.00;;;24.80;49.40;;;;;;5062861;28;22207;-61
2022/07/25 04:59:55;;;;;;;4.70;4.40;;;24.80;49.50;;;;;;5064556;28;20178;-71
2022/07/25 05:02:21;;;;;;;4.00;3.80;;;24.80;49.50;;;;;;5062889;28;21047;-71
2022/07/25 05:04:47;;;;;;;3.80;3.60;;;24.80;49.50;;;;;;5070754;28;20311;-57
2022/07/25 05:07:13;;;;;;;4.27;4.07;;;24.80;49.40;;;;;;5068874;28;20210;-57
2022/07/25 05:09:39;;;;;;;3.80;3.60;;;24.80;49.50;;;;;;5066360;28;20536;-58
2022/07/25 05:12:05;;;;;;;4.33;4.13;;;24.80;49.50;;;;;;5062955;28;20429;-64
2022/07/25 05:14:31;;;;;;;3.90;3.70;;;24.80;49.40;;;;;;5066767;28;20192;-68
2022/07/25 05:16:56;;;;;;;4.03;3.83;;;24.80;49.40;;;;;;5064075;28;20446;-62
2022/07/25 05:19:22;;;;;;;4.37;4.17;;;24.80;49.40;;;;;;5065123;28;20228;-63
2022/07/25 05:21:48;;;;;;;4.10;3.90;;;24.80;49.50;;;;;;5064720;28;20197;-60
2022/07/25 05:24:14;;;;;;;3.73;3.53;;;24.80;49.50;;;;;;5074659;28;20200;-66
2022/07/25 05:26:40;;;;;;;3.97;3.77;;;24.80;49.50;;;;;;5066068;28;22000;-72
2022/07/25 05:29:06;;;;;;;4.60;4.40;;;24.80;49.40;;;;;;5061301;28;20468;-57
2022/07/25 05:31:32;;;;;;;3.90;3.70;;;24.80;49.40;;;;;;5061914;28;20189;-59
2022/07/25 05:33:57;;;;;;;3.93;3.73;;;24.80;49.40;;;;;;5061473;28;20185;-72
2022/07/25 05:36:23;;;;;;;4.13;3.93;;;24.80;49.30;;;;;;5061056;28;20189;-62
2022/07/25 05:38:48;;;;;;;4.90;4.00;;;24.80;49.30;;;;;;5072494;28;20188;-64
2022/07/25 05:41:15;;;;;;;3.90;3.70;;;24.80;49.40;;;;;;5063255;28;20173;-60
2022/07/25 05:43:44;;;;;;;4.53;4.13;;;24.80;49.40;;;;;;5067801;28;20188;-69
2022/07/25 05:46:10;;;;;;;6.33;4.10;;;24.80;49.30;;;;;;5065109;28;20429;-63
2022/07/25 05:48:37;;;;;;;4.43;3.87;;;24.80;49.70;;;;;;5066097;28;20449;-72
2022/07/25 05:51:02;;;;;;;3.77;3.57;;;24.80;49.40;;;;;;5065645;28;20176;-60
2022/07/25 05:53:30;;;;;;;4.60;4.20;;;24.80;49.40;;;;;;5062177;28;20953;-59
2022/07/25 05:55:56;;;;;;;3.93;3.73;;;24.80;49.40;;;;;;5081673;28;22322;-70
2022/07/25 05:58:21;;;;;;;4.00;3.80;;;24.80;49.40;;;;;;5059292;28;20495;-69
2022/07/25 06:00:47;;;;;;;3.90;3.70;;;24.80;49.50;;;;;;5060521;28;20180;-60
2022/07/25 06:03:13;;;;;;;4.33;4.13;;;24.80;49.50;;;;;;5062084;28;20208;-70
2022/07/25 06:05:38;;;;;;;3.77;3.57;;;24.80;49.50;;;;;;5070472;28;20188;-59
2022/07/25 06:08:04;;;;;;;4.53;4.33;;;24.80;49.50;;;;;;5065752;28;20216;-72
2022/07/25 06:10:30;;;;;;;3.80;3.60;;;24.80;50.30;;;;;;5074603;28;20612;-59
2022/07/25 06:12:56;;;;;;;4.10;3.70;;;24.80;49.50;;;;;;5071285;28;20193;-57
2022/07/25 06:15:22;;;;;;;4.17;3.97;;;24.80;50.30;;;;;;5065018;28;20219;-61
2022/07/25 06:17:48;;;;;;;3.80;3.60;;;24.80;49.70;;;;;;5061846;28;20196;-58
2022/07/25 06:20:14;;;;;;;4.10;3.80;;;24.80;49.50;;;;;;5060039;28;20555;-70
2022/07/25 06:22:39;;;;;;;4.20;4.00;;;24.80;49.60;;;;;;5052163;28;20436;-57
2022/07/25 06:25:06;;;;;;;3.67;3.47;;;24.80;49.60;;;;;;5067614;28;20209;-64
2022/07/25 06:27:32;;;;;;;3.70;3.50;;;24.80;49.50;;;;;;5061284;28;20251;-66
2022/07/25 06:29:58;;;;;;;4.13;3.93;;;24.80;49.60;;;;;;5063476;28;20552;-62
2022/07/25 06:32:24;;;;;;;4.23;4.03;;;24.80;49.60;;;;;;5071453;28;20987;-66
2022/07/25 06:34:50;;;;;;;4.40;4.20;;;24.80;49.60;;;;;;5063922;28;20426;-60
2022/07/25 06:37:15;;;;;;;3.93;3.70;;;24.80;49.50;;;;;;5058043;28;20185;-67
2022/07/25 06:39:41;;;;;;;3.80;3.60;;;24.80;49.60;;;;;;5061958;28;20203;-57
2022/07/25 06:42:07;;;;;;;4.33;4.03;;;24.80;49.60;;;;;;5071592;28;22221;-59
2022/07/25 06:44:33;;;;;;;4.33;4.03;;;24.80;49.60;;;;;;5065246;28;20186;-62
2022/07/25 06:47:01;;;;;;;4.17;3.87;;;24.80;49.60;;;;;;5057535;28;20820;-62
2022/07/25 06:49:27;;;;;;;5.57;4.83;;;24.80;49.60;;;;;;5055704;28;20552;-68
2022/07/25 06:51:53;;;;;;;3.90;3.70;;;24.80;49.60;;;;;;5059426;28;20438;-61
2022/07/25 06:54:19;;;;;;;3.97;3.77;;;24.80;49.60;;;;;;5058380;28;20417;-68
2022/07/25 06:56:45;;;;;;;4.00;3.80;;;24.80;49.60;;;;;;5066222;28;20192;-64
2022/07/25 06:59:11;;;;;;;4.07;3.80;;;24.80;49.60;;;;;;5062613;28;20200;-60
2022/07/25 07:01:37;;;;;;;4.33;4.13;;;24.80;49.60;;;;;;5062852;28;20433;-72
2022/07/25 07:04:03;;;;;;;4.20;3.90;;;24.80;49.60;;;;;;5058237;28;20234;-71
2022/07/25 07:06:30;;;;;;;4.37;3.87;;;24.80;49.60;;;;;;5060611;28;20813;-64
2022/07/25 07:08:55;;;;;;;4.27;4.07;;;24.80;49.60;;;;;;5058965;28;20510;-58
2022/07/25 07:11:21;;;;;;;4.20;3.80;;;24.80;49.60;;;;;;5065054;28;20921;-63
2022/07/25 07:13:47;;;;;;;4.03;3.83;;;24.80;49.60;;;;;;5064231;28;20331;-58
2022/07/25 07:16:13;;;;;;;3.77;3.57;;;24.80;49.70;;;;;;5060176;28;20227;-68
2022/07/25 07:18:39;;;;;;;4.53;4.23;;;24.80;49.70;;;;;;5063386;28;20873;-58
2022/07/25 07:21:05;;;;;;;4.63;4.27;;;24.80;49.70;;;;;;5062940;28;20177;-68
2022/07/25 07:23:31;;;;;;;5.10;4.70;;;24.80;49.70;;;;;;5058057;28;20184;-68
2022/07/25 07:25:58;;;;;;;3.90;3.70;;;24.80;49.70;;;;;;5062831;28;20425;-71
2022/07/25 07:28:23;;;;;;;4.67;4.37;;;24.80;49.70;;;;;;5068566;28;20212;-73
2022/07/25 07:30:49;;;;;;;4.00;3.80;;;24.80;49.70;;;;;;5062611;28;21065;-58
2022/07/25 07:33:15;;;;;;;4.60;4.40;;;24.80;49.70;;;;;;5057566;28;20226;-58
2022/07/25 07:35:43;;;;;;;4.00;3.80;;;24.80;49.70;;;;;;5062528;28;20288;-70
2022/07/25 07:38:09;;;;;;;3.77;3.57;;;24.80;50.40;;;;;;5063055;28;20188;-66
2022/07/25 07:40:34;;;;;;;4.80;4.50;;;24.80;49.70;;;;;;5061754;28;20447;-65
2022/07/25 07:43:02;;;;;;;4.30;4.10;;;24.80;49.70;;;;;;5066528;28;20192;-61
2022/07/25 07:45:29;;;;;;;4.17;3.83;;;24.80;49.70;;;;;;5056980;28;20189;-68
2022/07/25 07:47:55;;;;;;;4.27;4.07;;;24.80;49.70;;;;;;5067915;28;20483;-63
2022/07/25 07:50:24;;;;;;;3.90;3.70;;;24.80;49.70;;;;;;5060182;28;21015;-72
2022/07/25 07:52:52;;;;;;;4.57;4.37;;;24.80;49.10;;;;;;5064356;28;20180;-61
2022/07/25 07:58:03;;;;;;;4.20;4.00;;;24.80;49.70;;;;;;5066191;28;22618;-63
2022/07/25 08:00:30;;;;;;;4.23;4.00;;;24.80;49.70;;;;;;5065076;28;20437;-65
2022/07/25 08:02:58;;;;;;;4.00;3.80;;;24.80;49.70;;;;;;5061087;28;20430;-58
2022/07/25 08:05:33;;;;;;;4.23;4.03;;;24.80;49.70;;;;;;5061567;28;20434;-60
2022/07/25 08:07:59;;;;;;;4.30;4.10;;;24.80;49.70;;;;;;5062500;28;20521;-63
2022/07/25 08:10:28;;;;;;;4.63;4.43;;;24.80;49.80;;;;;;5063287;28;20481;-59
2022/07/25 08:12:54;;;;;;;4.33;4.03;;;24.80;49.80;;;;;;5067405;28;20882;-61
2022/07/25 08:15:21;;;;;;;4.03;3.83;;;24.80;49.70;;;;;;5067614;28;20461;-67
2022/07/25 08:17:49;;;;;;;4.60;4.30;;;24.80;49.80;;;;;;5061215;28;20935;-59
2022/07/25 08:20:16;;;;;;;3.73;3.53;;;24.80;49.70;;;;;;5061453;28;21617;-58
2022/07/25 08:22:45;;;;;;;4.10;3.90;;;24.80;49.80;;;;;;5060591;28;20435;-70
2022/07/25 08:25:17;;;;;;;3.97;3.77;;;24.80;49.70;;;;;;5060099;28;20951;-58
2022/07/25 08:27:44;;;;;;;4.07;3.87;;;24.80;49.70;;;;;;5060313;28;20662;-64
2022/07/25 08:30:12;;;;;;;4.33;4.13;;;24.80;49.80;;;;;;5066977;28;20489;-67
2022/07/25 08:32:51;;;;;;;3.77;3.57;;;24.80;49.70;;;;;;5058404;28;20579;-57
2022/07/25 08:35:19;;;;;;;4.07;3.87;;;24.80;49.70;;;;;;5061016;28;20448;-58
2022/07/25 08:37:45;;;;;;;4.10;3.90;;;24.80;49.80;;;;;;5062733;28;20437;-58
2022/07/25 08:40:13;;;;;;;4.33;4.13;;;24.80;50.60;;;;;;5059506;28;20436;-58
2022/07/25 08:42:39;;;;;;;4.67;4.37;;;24.80;50.50;;;;;;5065011;28;20435;-57
2022/07/25 08:45:07;;;;;;;4.33;4.13;;;24.80;49.70;;;;;;5064454;28;20507;-65
2022/07/25 08:47:34;;;;;;;4.40;4.10;;;24.80;49.80;;;;;;5063985;28;20204;-66
2022/07/25 08:50:07;;;;;;;4.50;4.30;;;24.80;49.90;;;;;;5065067;28;20601;-68
2022/07/25 08:52:34;;;;;;;4.00;3.80;;;24.80;49.80;;;;;;5062154;28;20450;-63
2022/07/25 08:55:02;;;;;;;3.57;3.37;;;24.80;49.80;;;;;;5062202;28;20436;-60
2022/07/25 08:57:28;;;;;;;3.97;3.70;;;24.80;49.70;;;;;;5062952;28;20459;-60
2022/07/25 08:59:58;;;;;;;4.63;4.43;;;24.80;49.70;;;;;;5069784;28;20857;-58
2022/07/25 09:02:27;;;;;;;4.00;3.80;;;24.80;49.70;;;;;;5061608;28;20328;-70
2022/07/25 09:04:58;;;;;;;4.23;4.03;;;24.80;49.70;;;;;;5065954;28;20437;-59
2022/07/25 09:07:31;;;;;;;4.13;3.93;;;24.80;49.70;;;;;;5067407;28;20556;-60
2022/07/25 09:09:56;;;;;;;3.80;3.60;;;24.80;49.80;;;;;;5064898;28;21251;-60
2022/07/25 09:12:27;;;;;;;4.50;4.30;;;24.80;49.80;;;;;;5067120;28;21013;-62
2022/07/25 09:14:54;;;;;;;4.60;4.40;;;24.80;49.80;;;;;;5068504;28;20193;-58
2022/07/25 09:17:20;;;;;;;4.30;4.10;;;24.80;49.80;;;;;;5060631;28;20442;-72
2022/07/25 09:19:53;;;;;;;4.43;4.23;;;24.80;49.90;;;;;;5060999;28;20496;-60
2022/07/25 09:22:19;;;;;;;4.13;3.93;;;24.80;49.80;;;;;;5064393;28;20181;-71
2022/07/25 09:24:45;;;;;;;4.30;4.10;;;24.80;49.80;;;;;;5062507;28;20997;-64
2022/07/25 09:27:11;;;;;;;4.30;4.10;;;24.80;49.90;;;;;;5059090;28;20228;-59
2022/07/25 09:29:38;;;;;;;3.77;3.57;;;24.80;49.80;;;;;;5069678;28;20557;-61
2022/07/25 09:32:16;;;;;;;4.43;4.23;;;24.80;49.90;;;;;;5060278;28;20182;-68
2022/07/25 09:34:44;;;;;;;3.80;3.60;;;24.80;49.80;;;;;;5062446;28;20860;-70
2022/07/25 09:37:13;;;;;;;4.23;4.03;;;24.80;49.80;;;;;;5064359;28;20437;-64
2022/07/25 09:39:47;;;;;;;4.50;4.30;;;24.80;50.00;;;;;;5062413;28;20429;-61
2022/07/25 09:42:17;;;;;;;4.20;4.00;;;24.80;49.80;;;;;;5060530;28;20701;-69
2022/07/25 09:44:43;;;;;;;4.60;4.40;;;24.80;49.80;;;;;;5064071;28;20440;-57
2022/07/25 09:47:13;;;;;;;4.70;4.50;;;24.80;49.90;;;;;;5066847;28;20453;-58
2022/07/25 09:49:40;;;;;;;4.20;4.00;;;24.80;49.80;;;;;;5059207;28;20425;-64
2022/07/25 09:52:06;;;;;;;4.30;4.10;;;24.80;49.80;;;;;;5064427;28;20431;-58
2022/07/25 09:54:33;;;;;;;3.93;3.73;;;24.80;49.90;;;;;;5060322;28;20432;-66
2022/07/25 09:56:58;;;;;;;4.30;4.10;;;24.80;49.80;;;;;;5056864;28;20188;-65
2022/07/25 09:59:24;;;;;;;4.10;3.90;;;24.80;49.80;;;;;;5061042;28;21712;-58
2022/07/25 10:02:06;;;;;;;4.53;4.33;;;24.80;49.80;;;;;;5069647;28;20201;-64
2022/07/25 10:04:50;;;;;;;3.97;3.77;;;24.80;49.80;;;;;;5060061;28;20182;-62
2022/07/25 10:07:19;;;;;;;3.53;3.33;;;24.80;49.90;;;;;;5058950;28;20488;-64
2022/07/25 10:09:47;;;;;;;4.43;4.23;;;24.80;49.90;;;;;;5058478;28;20544;-67
2022/07/25 10:12:17;;;;;;;4.20;4.00;;;24.80;49.80;;;;;;5066109;28;20437;-62
2022/07/25 10:15:01;;;;;;;4.10;3.90;;;24.80;49.90;;;;;;5062897;28;20440;-61
2022/07/25 10:17:27;;;;;;;3.47;3.27;;;24.80;50.00;;;;;;5069850;28;21391;-71
2022/07/25 10:19:53;;;;;;;4.00;3.80;;;24.80;49.80;;;;;;5058959;28;20472;-59
2022/07/25 10:22:19;;;;;;;3.90;3.70;;;24.80;49.90;;;;;;5058226;28;20276;-61
2022/07/25 10:24:46;;;;;;;4.30;4.10;;;24.80;49.90;;;;;;5063914;28;21066;-62
2022/07/25 10:27:23;;;;;;;3.70;3.50;;;24.80;49.80;;;;;;5058723;28;20200;-58
2022/07/25 10:29:52;;;;;;;3.70;3.50;;;24.80;49.80;;;;;;5064211;28;20457;-64
2022/07/25 10:32:18;;;;;;;4.33;4.13;;;24.80;49.80;;;;;;5069187;28;20429;-70
2022/07/25 10:34:53;;;;;;;4.10;3.90;;;24.80;49.80;;;;;;5063559;28;20428;-72
2022/07/25 10:37:26;;;;;;;4.00;3.80;;;24.80;49.80;;;;;;5067178;28;20527;-60
2022/07/25 10:39:52;;;;;;;3.70;3.50;;;24.80;49.80;;;;;;5060354;28;20436;-58
2022/07/25 10:42:21;;;;;;;4.10;3.90;;;24.80;49.90;;;;;;5058652;28;20902;-58
2022/07/25 10:44:50;;;;;;;3.60;3.40;;;24.80;49.80;;;;;;5057190;28;20193;-60
2022/07/25 10:47:17;;;;;;;4.00;3.80;;;24.80;50.00;;;;;;5065573;28;20473;-68
2022/07/25 10:49:48;;;;;;;3.80;3.60;;;24.80;49.90;;;;;;5061703;28;20447;-63
2022/07/25 10:52:18;;;;;;;4.13;3.93;;;24.80;49.80;;;;;;5060021;28;20429;-65
2022/07/25 10:54:59;;;;;;;3.77;3.57;;;24.80;49.80;;;;;;5067844;28;20430;-59
2022/07/25 10:57:25;;;;;;;3.97;3.77;;;24.80;49.90;;;;;;5061510;28;20438;-58
2022/07/25 10:59:51;;;;;;;3.50;3.30;;;24.80;49.80;;;;;;5060836;28;20447;-60
2022/07/25 11:02:17;;;;;;;4.50;4.17;;;24.80;49.80;;;;;;5063315;28;20460;-64
2022/07/25 11:04:57;;;;;;;3.70;3.50;;;24.80;49.80;;;;;;5064441;28;20429;-58
2022/07/25 11:07:24;;;;;;;4.00;3.80;;;24.80;49.90;;;;;;5064036;28;20486;-71
2022/07/25 11:09:58;;;;;;;4.23;4.03;;;24.80;49.80;;;;;;5063635;28;20433;-71
2022/07/25 11:12:25;;;;;;;3.67;3.47;;;24.80;49.80;;;;;;5058616;28;20436;-58
2022/07/25 11:14:55;;;;;;;3.77;3.57;;;24.80;49.90;;;;;;5060266;28;20816;-60
2022/07/25 11:17:22;;;;;;;3.73;3.53;;;24.80;49.80;;;;;;5061052;28;20441;-56
2022/07/25 11:19:56;;;;;;;5.07;4.00;;;24.80;49.90;;;;;;5067334;28;21638;-70
2022/07/25 11:22:23;;;;;;;4.40;4.20;;;24.80;50.00;;;;;;5057014;28;20932;-61
2022/07/25 11:24:49;;;;;;;3.80;3.50;;;24.80;49.90;;;;;;5056938;28;20501;-59
2022/07/25 11:27:29;;;;;;;4.63;4.40;;;24.80;49.90;;;;;;5057234;28;21718;-63
2022/07/25 11:30:09;;;;;;;3.90;3.70;;;24.80;49.80;;;;;;5060513;28;20199;-73
2022/07/25 11:32:43;;;;;;;4.13;3.93;;;24.80;49.80;;;;;;5057953;28;20974;-69
2022/07/25 11:35:10;;;;;;;3.80;3.60;;;24.80;49.80;;;;;;5065217;28;20456;-70
2022/07/25 11:37:38;;;;;;;4.10;3.90;;;24.80;50.00;;;;;;5067846;28;20995;-59
2022/07/25 11:40:05;;;;;;;3.87;3.67;;;24.80;49.90;;;;;;5056272;28;20445;-67
2022/07/25 11:43:01;;;;;;;3.60;3.40;;;24.80;49.80;;;;;;5057170;28;20444;-60
2022/07/25 11:45:32;;;;;;;3.70;3.50;;;24.80;49.90;;;;;;5048089;28;20535;-74
2022/07/25 11:48:04;;;;;;;3.87;3.67;;;24.80;49.80;;;;;;5063557;28;20464;-63
2022/07/25 11:50:31;;;;;;;4.03;3.80;;;24.80;49.90;;;;;;5069032;28;20520;-61
2022/07/25 11:53:03;;;;;;;4.20;3.90;;;24.80;49.90;;;;;;5057502;28;20553;-57
2022/07/25 11:55:31;;;;;;;4.10;3.83;;;24.80;49.90;;;;;;5062812;28;20449;-71
2022/07/25 11:58:01;;;;;;;4.03;3.83;;;24.80;49.90;;;;;;5061068;28;20537;-75
2022/07/25 12:00:28;;;;;;;3.63;3.43;;;24.80;49.90;;;;;;5058499;28;20430;-69
2022/07/25 12:02:53;;;;;;;3.80;3.60;;;24.80;49.80;;;;;;5057662;28;21233;-69
2022/07/25 12:05:31;;;;;;;3.80;3.60;;;24.80;49.90;;;;;;5065605;28;20429;-65
2022/07/25 12:08:06;;;;;;;4.03;3.83;;;24.80;49.80;;;;;;5060857;28;20200;-66
2022/07/25 12:10:33;;;;;;;3.63;3.43;;;24.80;49.80;;;;;;5056516;28;20474;-59
2022/07/25 12:13:01;;;;;;;3.70;3.50;;;24.80;50.00;;;;;;5056332;28;20977;-72
2022/07/25 12:15:34;;;;;;;3.87;3.67;;;24.80;50.60;;;;;;5062255;28;20548;-64
2022/07/25 12:18:01;;;;;;;3.50;3.30;;;24.80;49.80;;;;;;5056879;28;20437;-61
2022/07/25 12:20:36;;;;;;;3.90;3.70;;;24.80;49.80;;;;;;5065193;28;20469;-76
2022/07/25 12:23:04;;;;;;;3.40;3.20;;;24.80;49.80;;;;;;5057625;28;20480;-64
2022/07/25 12:25:31;;;;;;;4.20;3.80;;;24.90;49.90;;;;;;5058856;28;20453;-60
2022/07/25 12:27:57;;;;;;;4.10;3.90;;;24.80;49.90;;;;;;5055496;28;20967;-62
2022/07/25 12:30:24;;;;;;;3.90;3.70;;;24.80;49.80;;;;;;5055265;28;20434;-60
2022/07/25 12:32:50;;;;;;;3.27;3.10;;;24.80;49.80;;;;;;5059784;28;20444;-57
2022/07/25 12:35:16;;;;;;;4.20;4.00;;;24.80;49.80;;;;;;5064440;28;20477;-57
2022/07/25 12:37:43;;;;;;;3.57;3.37;;;24.80;49.80;;;;;;5063529;28;20231;-64
2022/07/25 12:40:10;;;;;;;3.77;3.57;;;24.80;49.80;;;;;;5058972;28;20456;-57
2022/07/25 12:42:36;;;;;;;3.80;3.60;;;24.80;49.80;;;;;;5062477;28;20425;-64
2022/07/25 12:45:01;;;;;;;3.90;3.70;;;24.80;49.80;;;;;;5067506;28;20429;-67
2022/07/25 12:47:27;;;;;;;4.50;4.20;;;24.80;49.80;;;;;;5058530;28;20235;-58
2022/07/25 12:49:54;;;;;;;3.97;3.77;;;24.90;49.90;;;;;;5067918;28;20189;-63
2022/07/25 12:52:21;;;;;;;3.67;3.47;;;24.80;49.80;;;;;;5071645;28;20445;-59